sensor_id;sensor_type;location;lat;lon;timestamp;pressure;altitude;pressure_sealevel;temperature;humidity
75891;BME280;64571;47.512;19.054;2023-03-03T00:01:15;100680.16;;;6.65;70.63
75891;BME280;64571;47.512;19.054;2023-03-03T00:04:18;100680.09;;;6.54;71.22
75891;BME280;64571;47.512;19.054;2023-03-03T00:07:20;100660.69;;;6.44;71.26
75891;BME280;64571;47.512;19.054;2023-03-03T00:10:24;100679.81;;;6.56;71.06
75891;BME280;64571;47.512;19.054;2023-03-03T00:13:28;100679.84;;;6.61;71.56
75891;BME280;64571;47.512;19.054;2023-03-03T00:16:37;100661.78;;;6.43;71.40
75891;BME280;64571;47.512;19.054;2023-03-03T00:19:39;100680.06;;;6.49;71.52
75891;BME280;64571;47.512;19.054;2023-03-03T00:22:43;100657.84;;;6.34;71.29
75891;BME280;64571;47.512;19.054;2023-03-03T00:25:49;100670.34;;;6.42;71.30
75891;BME280;64571;47.512;19.054;2023-03-03T00:28:53;100675.34;;;6.45;71.20
75891;BME280;64571;47.512;19.054;2023-03-03T00:32:19;100670.38;;;6.47;71.07
75891;BME280;64571;47.512;19.054;2023-03-03T00:35:31;100669.72;;;6.34;71.56
75891;BME280;64571;47.512;19.054;2023-03-03T00:38:40;100667.84;;;6.40;71.38
75891;BME280;64571;47.512;19.054;2023-03-03T00:41:43;100669.19;;;6.38;71.40
75891;BME280;64571;47.512;19.054;2023-03-03T00:44:46;100663.84;;;6.26;71.70
75891;BME280;64571;47.512;19.054;2023-03-03T00:47:49;100648.53;;;6.08;71.96
75891;BME280;64571;47.512;19.054;2023-03-03T00:50:54;100651.22;;;6.03;71.84
75891;BME280;64571;47.512;19.054;2023-03-03T00:53:57;100665.69;;;6.15;72.07
75891;BME280;64571;47.512;19.054;2023-03-03T00:57:01;100656.75;;;6.03;72.06
75891;BME280;64571;47.512;19.054;2023-03-03T01:00:04;100652.12;;;6.08;71.92
75891;BME280;64571;47.512;19.054;2023-03-03T01:03:13;100661.22;;;6.09;72.07
75891;BME280;64571;47.512;19.054;2023-03-03T01:06:17;100651.22;;;6.03;72.37
75891;BME280;64571;47.512;19.054;2023-03-03T01:09:19;100647.63;;;6.02;72.23
75891;BME280;64571;47.512;19.054;2023-03-03T01:12:22;100630.66;;;5.89;72.37
75891;BME280;64571;47.512;19.054;2023-03-03T01:15:25;100630.03;;;5.81;72.25
75891;BME280;64571;47.512;19.054;2023-03-03T01:18:28;100642.78;;;5.88;72.23
75891;BME280;64571;47.512;19.054;2023-03-03T01:21:30;100628.84;;;5.72;72.06
75891;BME280;64571;47.512;19.054;2023-03-03T01:24:33;100625.41;;;5.60;72.12
75891;BME280;64571;47.512;19.054;2023-03-03T01:27:36;100646.72;;;5.70;72.00
75891;BME280;64571;47.512;19.054;2023-03-03T01:30:38;100623.09;;;5.52;72.29
75891;BME280;64571;47.512;19.054;2023-03-03T01:33:41;100620.94;;;5.54;72.35
75891;BME280;64571;47.512;19.054;2023-03-03T01:36:44;100642.22;;;5.58;72.39
75891;BME280;64571;47.512;19.054;2023-03-03T01:39:50;100634.97;;;5.52;72.46
75891;BME280;64571;47.512;19.054;2023-03-03T01:42:53;100634.84;;;5.42;72.82
75891;BME280;64571;47.512;19.054;2023-03-03T01:49:02;100636.09;;;5.29;73.38
75891;BME280;64571;47.512;19.054;2023-03-03T01:52:13;100607.19;;;5.10;73.44
75891;BME280;64571;47.512;19.054;2023-03-03T01:55:22;100627.94;;;5.18;74.15
75891;BME280;64571;47.512;19.054;2023-03-03T01:58:33;100622.12;;;5.14;74.32
75891;BME280;64571;47.512;19.054;2023-03-03T02:01:37;100625.44;;;5.16;74.23
75891;BME280;64571;47.512;19.054;2023-03-03T02:04:40;100622.97;;;5.15;74.36
75891;BME280;64571;47.512;19.054;2023-03-03T02:07:43;100621.81;;;5.11;74.24
75891;BME280;64571;47.512;19.054;2023-03-03T02:10:47;100621.59;;;5.17;74.04
75891;BME280;64571;47.512;19.054;2023-03-03T02:13:50;100602.63;;;4.99;73.97
75891;BME280;64571;47.512;19.054;2023-03-03T02:16:52;100625.94;;;5.13;73.90
75891;BME280;64571;47.512;19.054;2023-03-03T02:20:15;100599.94;;;5.04;73.36
75891;BME280;64571;47.512;19.054;2023-03-03T02:23:26;100628.78;;;5.18;73.16
75891;BME280;64571;47.512;19.054;2023-03-03T02:26:33;100619.00;;;5.05;73.30
75891;BME280;64571;47.512;19.054;2023-03-03T02:29:37;100595.97;;;4.95;73.62
75891;BME280;64571;47.512;19.054;2023-03-03T02:32:40;100597.06;;;4.94;73.49
75891;BME280;64571;47.512;19.054;2023-03-03T02:35:42;100599.19;;;4.87;73.50
75891;BME280;64571;47.512;19.054;2023-03-03T02:38:50;100616.47;;;5.04;73.60
75891;BME280;64571;47.512;19.054;2023-03-03T02:42:36;100614.47;;;4.99;73.77
75891;BME280;64571;47.512;19.054;2023-03-03T02:45:32;100610.56;;;4.95;73.56
75891;BME280;64571;47.512;19.054;2023-03-03T02:48:34;100604.84;;;4.97;73.60
75891;BME280;64571;47.512;19.054;2023-03-03T02:51:37;100589.00;;;4.87;73.44
75891;BME280;64571;47.512;19.054;2023-03-03T02:54:40;100602.69;;;5.04;73.84
75891;BME280;64571;47.512;19.054;2023-03-03T02:57:43;100605.72;;;5.02;74.12
75891;BME280;64571;47.512;19.054;2023-03-03T03:00:45;100578.28;;;4.91;74.17
75891;BME280;64571;47.512;19.054;2023-03-03T03:03:51;100602.78;;;5.09;74.30
75891;BME280;64571;47.512;19.054;2023-03-03T03:06:55;100602.53;;;5.11;74.23
75891;BME280;64571;47.512;19.054;2023-03-03T03:09:58;100592.59;;;5.10;74.04
75891;BME280;64571;47.512;19.054;2023-03-03T03:13:02;100571.78;;;4.97;74.17
75891;BME280;64571;47.512;19.054;2023-03-03T03:16:05;100589.00;;;5.09;73.86
75891;BME280;64571;47.512;19.054;2023-03-03T03:19:08;100585.34;;;5.03;73.78
75891;BME280;64571;47.512;19.054;2023-03-03T03:22:11;100584.06;;;5.11;73.78
75891;BME280;64571;47.512;19.054;2023-03-03T03:25:13;100581.88;;;5.13;73.65
75891;BME280;64571;47.512;19.054;2023-03-03T03:28:17;100548.72;;;5.03;73.67
75891;BME280;64571;47.512;19.054;2023-03-03T03:31:21;100575.81;;;5.11;73.70
75891;BME280;64571;47.512;19.054;2023-03-03T03:34:24;100574.19;;;5.15;73.33
75891;BME280;64571;47.512;19.054;2023-03-03T03:37:26;100574.25;;;5.20;72.92
75891;BME280;64571;47.512;19.054;2023-03-03T03:40:29;100577.47;;;5.12;73.12
75891;BME280;64571;47.512;19.054;2023-03-03T03:43:31;100571.41;;;5.10;73.13
75891;BME280;64571;47.512;19.054;2023-03-03T03:46:34;100568.81;;;5.03;73.29
75891;BME280;64571;47.512;19.054;2023-03-03T03:49:37;100547.44;;;4.89;73.74
75891;BME280;64571;47.512;19.054;2023-03-03T03:52:40;100555.25;;;4.97;73.71
75891;BME280;64571;47.512;19.054;2023-03-03T03:55:45;100556.91;;;4.98;73.71
75891;BME280;64571;47.512;19.054;2023-03-03T03:58:48;100553.84;;;4.94;74.10
75891;BME280;64571;47.512;19.054;2023-03-03T04:01:50;100562.19;;;4.77;74.46
75891;BME280;64571;47.512;19.054;2023-03-03T04:04:54;100548.06;;;4.52;74.71
75891;BME280;64571;47.512;19.054;2023-03-03T04:07:57;100538.34;;;4.44;74.99
75891;BME280;64571;47.512;19.054;2023-03-03T04:11:00;100534.94;;;4.37;75.17
75891;BME280;64571;47.512;19.054;2023-03-03T04:14:02;100559.09;;;4.52;75.24
75891;BME280;64571;47.512;19.054;2023-03-03T04:17:06;100536.59;;;4.38;75.27
75891;BME280;64571;47.512;19.054;2023-03-03T04:20:12;100557.84;;;4.43;75.64
75891;BME280;64571;47.512;19.054;2023-03-03T04:23:17;100556.25;;;4.47;75.47
75891;BME280;64571;47.512;19.054;2023-03-03T04:26:21;100554.59;;;4.46;75.33
75891;BME280;64571;47.512;19.054;2023-03-03T04:29:25;100532.97;;;4.32;75.33
75891;BME280;64571;47.512;19.054;2023-03-03T04:32:27;100555.59;;;4.40;75.48
75891;BME280;64571;47.512;19.054;2023-03-03T04:35:30;100553.94;;;4.39;75.63
75891;BME280;64571;47.512;19.054;2023-03-03T04:38:33;100555.53;;;4.35;75.40
75891;BME280;64571;47.512;19.054;2023-03-03T04:41:36;100528.97;;;4.23;75.67
75891;BME280;64571;47.512;19.054;2023-03-03T04:44:39;100550.72;;;4.25;76.38
75891;BME280;64571;47.512;19.054;2023-03-03T04:47:42;100530.84;;;4.01;76.39
75891;BME280;64571;47.512;19.054;2023-03-03T04:50:44;100532.34;;;3.92;76.70
75891;BME280;64571;47.512;19.054;2023-03-03T04:53:47;100534.84;;;3.93;76.59
75891;BME280;64571;47.512;19.054;2023-03-03T04:56:49;100558.81;;;4.15;76.45
75891;BME280;64571;47.512;19.054;2023-03-03T04:59:52;100535.47;;;4.00;77.00
75891;BME280;64571;47.512;19.054;2023-03-03T05:02:55;100554.31;;;4.09;77.00
75891;BME280;64571;47.512;19.054;2023-03-03T05:05:58;100553.16;;;4.04;76.68
75891;BME280;64571;47.512;19.054;2023-03-03T05:09:00;100558.81;;;3.98;76.56
75891;BME280;64571;47.512;19.054;2023-03-03T05:12:03;100535.59;;;3.89;76.65
75891;BME280;64571;47.512;19.054;2023-03-03T05:15:06;100554.84;;;4.05;76.89
75891;BME280;64571;47.512;19.054;2023-03-03T05:18:09;100557.81;;;4.04;77.20
75891;BME280;64571;47.512;19.054;2023-03-03T05:21:12;100529.69;;;3.97;77.08
75891;BME280;64571;47.512;19.054;2023-03-03T05:24:15;100563.47;;;4.14;77.00
75891;BME280;64571;47.512;19.054;2023-03-03T05:27:18;100556.97;;;4.20;76.98
75891;BME280;64571;47.512;19.054;2023-03-03T05:30:20;100555.22;;;4.14;76.84
75891;BME280;64571;47.512;19.054;2023-03-03T05:33:23;100541.91;;;4.06;76.54
75891;BME280;64571;47.512;19.054;2023-03-03T05:36:26;100566.41;;;4.24;76.12
75891;BME280;64571;47.512;19.054;2023-03-03T05:39:28;100566.97;;;4.26;75.85
75891;BME280;64571;47.512;19.054;2023-03-03T05:42:31;100563.66;;;4.24;75.86
75891;BME280;64571;47.512;19.054;2023-03-03T05:45:33;100571.47;;;4.32;76.05
75891;BME280;64571;47.512;19.054;2023-03-03T05:48:36;100569.34;;;4.40;75.72
75891;BME280;64571;47.512;19.054;2023-03-03T05:51:39;100567.28;;;4.47;75.33
75891;BME280;64571;47.512;19.054;2023-03-03T05:54:41;100560.34;;;4.44;75.64
75891;BME280;64571;47.512;19.054;2023-03-03T05:57:44;100572.78;;;4.47;75.78
75891;BME280;64571;47.512;19.054;2023-03-03T06:00:47;100572.13;;;4.40;75.92
75891;BME280;64571;47.512;19.054;2023-03-03T06:03:49;100572.00;;;4.51;75.62
75891;BME280;64571;47.512;19.054;2023-03-03T06:06:52;100570.66;;;4.54;75.71
75891;BME280;64571;47.512;19.054;2023-03-03T06:09:54;100575.94;;;4.55;75.51
75891;BME280;64571;47.512;19.054;2023-03-03T06:12:57;100577.84;;;4.77;74.95
75891;BME280;64571;47.512;19.054;2023-03-03T06:16:00;100574.84;;;4.78;74.68
75891;BME280;64571;47.512;19.054;2023-03-03T06:19:03;100572.28;;;4.94;74.27
75891;BME280;64571;47.512;19.054;2023-03-03T06:22:06;100564.72;;;5.06;73.94
75891;BME280;64571;47.512;19.054;2023-03-03T06:25:09;100573.00;;;5.06;73.92
75891;BME280;64571;47.512;19.054;2023-03-03T06:28:13;100576.06;;;5.10;73.85
75891;BME280;64571;47.512;19.054;2023-03-03T06:31:15;100583.63;;;5.19;73.65
75891;BME280;64571;47.512;19.054;2023-03-03T06:34:18;100580.91;;;5.24;73.54
75891;BME280;64571;47.512;19.054;2023-03-03T06:37:20;100554.03;;;5.10;73.23
75891;BME280;64571;47.512;19.054;2023-03-03T06:40:23;100558.00;;;4.97;73.80
75891;BME280;64571;47.512;19.054;2023-03-03T06:43:25;100587.88;;;5.05;74.03
75891;BME280;64571;47.512;19.054;2023-03-03T06:46:28;100584.28;;;5.04;73.95
75891;BME280;64571;47.512;19.054;2023-03-03T06:49:30;100577.28;;;4.97;74.42
75891;BME280;64571;47.512;19.054;2023-03-03T06:52:33;100594.31;;;5.16;74.32
75891;BME280;64571;47.512;19.054;2023-03-03T06:55:36;100591.94;;;5.24;73.97
75891;BME280;64571;47.512;19.054;2023-03-03T06:58:38;100594.69;;;5.24;73.73
75891;BME280;64571;47.512;19.054;2023-03-03T07:01:42;100586.06;;;5.16;73.40
75891;BME280;64571;47.512;19.054;2023-03-03T07:04:45;100603.84;;;5.30;73.49
75891;BME280;64571;47.512;19.054;2023-03-03T07:07:48;100608.84;;;5.33;73.03
75891;BME280;64571;47.512;19.054;2023-03-03T07:10:51;100590.78;;;5.20;73.12
75891;BME280;64571;47.512;19.054;2023-03-03T07:13:55;100609.69;;;5.33;72.93
75891;BME280;64571;47.512;19.054;2023-03-03T07:17:01;100595.53;;;5.25;72.87
75891;BME280;64571;47.512;19.054;2023-03-03T07:20:18;100618.00;;;5.39;72.78
75891;BME280;64571;47.512;19.054;2023-03-03T07:23:31;100619.94;;;5.38;72.73
75891;BME280;64571;47.512;19.054;2023-03-03T07:26:43;100587.47;;;5.18;72.68
75891;BME280;64571;47.512;19.054;2023-03-03T07:29:47;100625.38;;;5.33;73.01
75891;BME280;64571;47.512;19.054;2023-03-03T07:32:55;100635.19;;;5.46;72.77
75891;BME280;64571;47.512;19.054;2023-03-03T07:36:01;100635.84;;;5.58;72.37
75891;BME280;64571;47.512;19.054;2023-03-03T07:39:25;100634.22;;;5.62;72.27
75891;BME280;64571;47.512;19.054;2023-03-03T07:42:39;100612.41;;;5.55;72.17
75891;BME280;64571;47.512;19.054;2023-03-03T07:45:42;100630.66;;;5.89;71.36
75891;BME280;64571;47.512;19.054;2023-03-03T07:48:45;100605.09;;;5.98;70.58
75891;BME280;64571;47.512;19.054;2023-03-03T07:51:52;100633.16;;;6.17;69.94
75891;BME280;64571;47.512;19.054;2023-03-03T07:54:58;100605.56;;;6.17;69.62
75891;BME280;64571;47.512;19.054;2023-03-03T08:01:38;100625.97;;;6.53;68.98
75891;BME280;64571;47.512;19.054;2023-03-03T08:04:43;100621.31;;;6.59;68.66
75891;BME280;64571;47.512;19.054;2023-03-03T08:07:52;100622.44;;;6.63;68.42
75891;BME280;64571;47.512;19.054;2023-03-03T08:10:57;100619.41;;;6.65;68.43
75891;BME280;64571;47.512;19.054;2023-03-03T08:14:00;100615.84;;;6.69;68.42
75891;BME280;64571;47.512;19.054;2023-03-03T08:17:16;100608.47;;;6.80;68.60
75891;BME280;64571;47.512;19.054;2023-03-03T08:20:49;100611.59;;;6.94;69.68
75891;BME280;64571;47.512;19.054;2023-03-03T08:23:53;100619.41;;;7.12;69.44
75891;BME280;64571;47.512;19.054;2023-03-03T08:26:55;100613.09;;;7.27;70.50
75891;BME280;64571;47.512;19.054;2023-03-03T08:29:58;100609.53;;;7.42;70.39
75891;BME280;64571;47.512;19.054;2023-03-03T08:33:01;100615.38;;;7.50;70.25
75891;BME280;64571;47.512;19.054;2023-03-03T08:36:05;100614.03;;;7.63;69.93
75891;BME280;64571;47.512;19.054;2023-03-03T08:39:10;100605.50;;;7.75;69.33
75891;BME280;64571;47.512;19.054;2023-03-03T08:42:13;100619.34;;;7.95;69.06
75891;BME280;64571;47.512;19.054;2023-03-03T08:45:17;100627.66;;;8.10;68.69
75891;BME280;64571;47.512;19.054;2023-03-03T08:48:20;100610.47;;;8.19;68.58
75891;BME280;64571;47.512;19.054;2023-03-03T08:51:22;100619.91;;;8.18;68.98
75891;BME280;64571;47.512;19.054;2023-03-03T08:54:26;100606.63;;;8.20;69.29
75891;BME280;64571;47.512;19.054;2023-03-03T08:57:28;100617.19;;;8.38;68.71
75891;BME280;64571;47.512;19.054;2023-03-03T09:00:31;100602.50;;;8.38;68.76
75891;BME280;64571;47.512;19.054;2023-03-03T09:03:34;100607.75;;;8.39;68.94
75891;BME280;64571;47.512;19.054;2023-03-03T09:06:36;100605.78;;;8.50;68.65
75891;BME280;64571;47.512;19.054;2023-03-03T09:09:39;100609.09;;;8.62;68.25
75891;BME280;64571;47.512;19.054;2023-03-03T09:12:43;100599.97;;;8.61;68.17
75891;BME280;64571;47.512;19.054;2023-03-03T09:15:49;100589.44;;;8.53;68.27
75891;BME280;64571;47.512;19.054;2023-03-03T09:18:52;100601.28;;;8.84;67.73
75891;BME280;64571;47.512;19.054;2023-03-03T09:22:17;100606.03;;;8.79;67.56
75891;BME280;64571;47.512;19.054;2023-03-03T09:25:33;100606.53;;;8.91;67.29
75891;BME280;64571;47.512;19.054;2023-03-03T09:28:37;100596.25;;;9.02;67.12
75891;BME280;64571;47.512;19.054;2023-03-03T09:31:45;100596.28;;;8.92;67.06
75891;BME280;64571;47.512;19.054;2023-03-03T09:34:49;100585.16;;;9.02;66.54
75891;BME280;64571;47.512;19.054;2023-03-03T09:37:52;100606.16;;;9.13;66.30
75891;BME280;64571;47.512;19.054;2023-03-03T09:48:14;100603.16;;;9.64;64.56
75891;BME280;64571;47.512;19.054;2023-03-03T09:58:13;100572.47;;;10.53;60.23
75891;BME280;64571;47.512;19.054;2023-03-03T10:01:52;100592.53;;;10.74;59.82
75891;BME280;64571;47.512;19.054;2023-03-03T10:18:29;100582.47;;;10.54;60.07
75891;BME280;64571;47.512;19.054;2023-03-03T10:21:37;100571.66;;;11.00;58.81
75891;BME280;64571;47.512;19.054;2023-03-03T10:38:38;100559.00;;;11.32;57.69
75891;BME280;64571;47.512;19.054;2023-03-03T10:45:36;100554.00;;;11.53;56.86
75891;BME280;64571;47.512;19.054;2023-03-03T10:49:07;100543.16;;;11.51;56.66
75891;BME280;64571;47.512;19.054;2023-03-03T11:06:05;100530.06;;;12.22;54.65
75891;BME280;64571;47.512;19.054;2023-03-03T11:09:33;100535.16;;;12.34;54.17
75891;BME280;64571;47.512;19.054;2023-03-03T11:12:48;100526.38;;;12.40;53.78
75891;BME280;64571;47.512;19.054;2023-03-03T11:19:34;100516.78;;;12.47;53.62
75891;BME280;64571;47.512;19.054;2023-03-03T11:22:44;100516.88;;;12.41;53.66
75891;BME280;64571;47.512;19.054;2023-03-03T11:32:40;100497.81;;;12.76;52.82
75891;BME280;64571;47.512;19.054;2023-03-03T11:35:55;100478.88;;;12.73;52.57
75891;BME280;64571;47.512;19.054;2023-03-03T11:39:11;100484.56;;;12.68;52.99
75891;BME280;64571;47.512;19.054;2023-03-03T11:42:31;100483.12;;;12.98;52.09
75891;BME280;64571;47.512;19.054;2023-03-03T11:45:50;100490.94;;;13.37;51.10
75891;BME280;64571;47.512;19.054;2023-03-03T11:55:59;100460.75;;;13.26;50.91
75891;BME280;64571;47.512;19.054;2023-03-03T12:05:54;100459.16;;;12.42;52.27
75891;BME280;64571;47.512;19.054;2023-03-03T12:09:26;100462.28;;;12.54;52.67
75891;BME280;64571;47.512;19.054;2023-03-03T12:13:28;100460.91;;;12.38;53.39
75891;BME280;64571;47.512;19.054;2023-03-03T12:19:58;100456.47;;;12.23;54.06
75891;BME280;64571;47.512;19.054;2023-03-03T12:23:00;100457.81;;;12.12;55.25
75891;BME280;64571;47.512;19.054;2023-03-03T12:26:31;100456.78;;;12.08;55.83
75891;BME280;64571;47.512;19.054;2023-03-03T12:40:13;100449.56;;;12.07;55.69
75891;BME280;64571;47.512;19.054;2023-03-03T12:43:39;100450.16;;;12.04;55.06
75891;BME280;64571;47.512;19.054;2023-03-03T12:46:55;100444.03;;;11.88;53.36
75891;BME280;64571;47.512;19.054;2023-03-03T13:06:42;100445.53;;;12.27;50.98
75891;BME280;64571;47.512;19.054;2023-03-03T13:09:58;100453.47;;;12.33;50.36
75891;BME280;64571;47.512;19.054;2023-03-03T13:13:32;100437.19;;;12.40;50.71
75891;BME280;64571;47.512;19.054;2023-03-03T13:16:43;100437.28;;;12.35;49.27
75891;BME280;64571;47.512;19.054;2023-03-03T13:26:29;100410.81;;;12.88;46.77
75891;BME280;64571;47.512;19.054;2023-03-03T13:29:40;100433.25;;;13.19;46.56
75891;BME280;64571;47.512;19.054;2023-03-03T13:32:53;100413.19;;;13.17;46.51
75891;BME280;64571;47.512;19.054;2023-03-03T13:36:08;100421.88;;;13.29;46.66
75891;BME280;64571;47.512;19.054;2023-03-03T13:39:18;100420.22;;;13.14;46.83
75891;BME280;64571;47.512;19.054;2023-03-03T13:42:25;100420.13;;;12.83;47.12
75891;BME280;64571;47.512;19.054;2023-03-03T13:52:01;100409.50;;;13.08;45.85
75891;BME280;64571;47.512;19.054;2023-03-03T14:08:56;100401.53;;;13.15;45.75
75891;BME280;64571;47.512;19.054;2023-03-03T14:12:41;100397.91;;;13.14;45.88
75891;BME280;64571;47.512;19.054;2023-03-03T14:22:53;100371.56;;;12.84;46.00
75891;BME280;64571;47.512;19.054;2023-03-03T14:29:19;100380.13;;;12.88;46.22
75891;BME280;64571;47.512;19.054;2023-03-03T14:32:25;100377.34;;;12.88;46.36
75891;BME280;64571;47.512;19.054;2023-03-03T14:36:00;100379.56;;;13.00;46.06
75891;BME280;64571;47.512;19.054;2023-03-03T14:42:38;100379.13;;;12.70;45.92
75891;BME280;64571;47.512;19.054;2023-03-03T14:45:51;100367.47;;;12.68;45.98
75891;BME280;64571;47.512;19.054;2023-03-03T14:48:56;100375.13;;;12.62;45.96
75891;BME280;64571;47.512;19.054;2023-03-03T14:55:31;100388.88;;;12.45;46.37
75891;BME280;64571;47.512;19.054;2023-03-03T14:58:40;100380.63;;;12.40;46.47
75891;BME280;64571;47.512;19.054;2023-03-03T15:01:43;100372.87;;;12.23;46.69
75891;BME280;64571;47.512;19.054;2023-03-03T15:04:47;100379.28;;;12.10;46.86
75891;BME280;64571;47.512;19.054;2023-03-03T15:11:18;100382.28;;;12.13;47.24
75891;BME280;64571;47.512;19.054;2023-03-03T15:14:34;100369.88;;;12.06;47.49
75891;BME280;64571;47.512;19.054;2023-03-03T15:17:40;100384.12;;;12.04;47.83
75891;BME280;64571;47.512;19.054;2023-03-03T15:20:50;100394.09;;;11.91;48.34
75891;BME280;64571;47.512;19.054;2023-03-03T15:24:20;100372.09;;;11.76;48.55
75891;BME280;64571;47.512;19.054;2023-03-03T15:27:34;100398.19;;;11.80;49.01
75891;BME280;64571;47.512;19.054;2023-03-03T15:30:54;100377.62;;;11.62;49.01
75891;BME280;64571;47.512;19.054;2023-03-03T15:37:42;100394.72;;;11.56;48.96
75891;BME280;64571;47.512;19.054;2023-03-03T15:40:58;100391.53;;;11.49;48.83
75891;BME280;64571;47.512;19.054;2023-03-03T15:44:13;100373.94;;;11.34;48.91
75891;BME280;64571;47.512;19.054;2023-03-03T16:01:24;100401.25;;;11.13;48.49
75891;BME280;64571;47.512;19.054;2023-03-03T16:04:32;100414.44;;;11.08;48.79
75891;BME280;64571;47.512;19.054;2023-03-03T16:10:49;100420.66;;;11.00;48.82
75891;BME280;64571;47.512;19.054;2023-03-03T16:14:06;100415.31;;;10.84;49.02
75891;BME280;64571;47.512;19.054;2023-03-03T16:31:12;100429.41;;;10.69;49.87
75891;BME280;64571;47.512;19.054;2023-03-03T16:34:53;100429.78;;;10.62;49.90
75891;BME280;64571;47.512;19.054;2023-03-03T16:37:59;100440.97;;;10.57;50.26
75891;BME280;64571;47.512;19.054;2023-03-03T16:41:12;100426.97;;;10.44;50.40
75891;BME280;64571;47.512;19.054;2023-03-03T16:44:33;100450.25;;;10.48;50.55
75891;BME280;64571;47.512;19.054;2023-03-03T17:04:49;100453.31;;;10.22;50.30
75891;BME280;64571;47.512;19.054;2023-03-03T17:18:11;100451.94;;;9.90;50.17
75891;BME280;64571;47.512;19.054;2023-03-03T17:21:36;100467.19;;;9.93;50.20
75891;BME280;64571;47.512;19.054;2023-03-03T17:24:47;100457.91;;;9.79;50.08
75891;BME280;64571;47.512;19.054;2023-03-03T17:38:05;100464.44;;;9.59;50.46
75891;BME280;64571;47.512;19.054;2023-03-03T17:44:46;100486.66;;;9.54;50.42
75891;BME280;64571;47.512;19.054;2023-03-03T18:23:41;100485.63;;;9.00;52.21
75891;BME280;64571;47.512;19.054;2023-03-03T18:26:44;100486.25;;;8.92;52.40
75891;BME280;64571;47.512;19.054;2023-03-03T18:36:38;100477.72;;;8.73;53.04
75891;BME280;64571;47.512;19.054;2023-03-03T18:56:45;100486.91;;;8.63;53.55
75891;BME280;64571;47.512;19.054;2023-03-03T18:59:57;100487.22;;;8.62;53.67
75891;BME280;64571;47.512;19.054;2023-03-03T19:09:48;100481.09;;;8.65;53.37
75891;BME280;64571;47.512;19.054;2023-03-03T19:12:59;100492.19;;;8.65;53.21
75891;BME280;64571;47.512;19.054;2023-03-03T19:16:28;100491.37;;;8.65;53.44
75891;BME280;64571;47.512;19.054;2023-03-03T19:19:32;100494.66;;;8.67;53.00
75891;BME280;64571;47.512;19.054;2023-03-03T19:23:05;100491.06;;;8.66;52.75
75891;BME280;64571;47.512;19.054;2023-03-03T19:26:33;100474.75;;;8.54;51.94
75891;BME280;64571;47.512;19.054;2023-03-03T19:33:49;100486.09;;;8.63;51.20
75891;BME280;64571;47.512;19.054;2023-03-03T19:46:46;100506.62;;;8.52;50.35
75891;BME280;64571;47.512;19.054;2023-03-03T19:56:49;100507.75;;;8.41;50.34
75891;BME280;64571;47.512;19.054;2023-03-03T20:00:09;100506.66;;;8.31;49.96
75891;BME280;64571;47.512;19.054;2023-03-03T20:06:54;100509.44;;;8.21;50.43
75891;BME280;64571;47.512;19.054;2023-03-03T20:16:43;100511.09;;;8.17;50.05
75891;BME280;64571;47.512;19.054;2023-03-03T20:23:50;100513.91;;;8.07;49.41
75891;BME280;64571;47.512;19.054;2023-03-03T20:27:04;100514.44;;;8.04;49.61
75891;BME280;64571;47.512;19.054;2023-03-03T20:30:51;100521.66;;;8.00;49.51
75891;BME280;64571;47.512;19.054;2023-03-03T20:37:23;100516.41;;;7.93;49.98
75891;BME280;64571;47.512;19.054;2023-03-03T20:53:24;100512.25;;;7.75;50.56
75891;BME280;64571;47.512;19.054;2023-03-03T20:57:23;100514.16;;;7.70;50.47
75891;BME280;64571;47.512;19.054;2023-03-03T21:03:09;100501.72;;;7.52;50.68
75891;BME280;64571;47.512;19.054;2023-03-03T21:06:18;100521.09;;;7.57;50.73
75891;BME280;64571;47.512;19.054;2023-03-03T21:09:25;100524.13;;;7.55;50.57
75891;BME280;64571;47.512;19.054;2023-03-03T21:12:29;100498.41;;;7.40;50.64
75891;BME280;64571;47.512;19.054;2023-03-03T21:15:33;100523.00;;;7.41;50.74
75891;BME280;64571;47.512;19.054;2023-03-03T21:18:37;100519.94;;;7.32;51.24
75891;BME280;64571;47.512;19.054;2023-03-03T21:21:41;100521.34;;;7.30;51.33
75891;BME280;64571;47.512;19.054;2023-03-03T21:24:55;100495.59;;;7.14;51.69
75891;BME280;64571;47.512;19.054;2023-03-03T21:28:18;100519.34;;;7.20;51.73
75891;BME280;64571;47.512;19.054;2023-03-03T21:31:21;100523.22;;;7.19;52.05
75891;BME280;64571;47.512;19.054;2023-03-03T21:34:37;100517.69;;;7.14;52.34
75891;BME280;64571;47.512;19.054;2023-03-03T21:37:51;100520.97;;;7.06;52.92
75891;BME280;64571;47.512;19.054;2023-03-03T21:40:59;100501.31;;;6.87;53.39
75891;BME280;64571;47.512;19.054;2023-03-03T21:47:33;100523.72;;;6.96;54.32
75891;BME280;64571;47.512;19.054;2023-03-03T21:50:35;100506.22;;;6.75;54.54
75891;BME280;64571;47.512;19.054;2023-03-03T21:53:43;100530.31;;;6.84;55.44
75891;BME280;64571;47.512;19.054;2023-03-03T21:56:46;100525.31;;;6.81;56.00
75891;BME280;64571;47.512;19.054;2023-03-03T21:59:51;100528.06;;;6.76;56.51
75891;BME280;64571;47.512;19.054;2023-03-03T22:02:54;100520.88;;;6.75;56.65
75891;BME280;64571;47.512;19.054;2023-03-03T22:05:57;100506.72;;;6.62;56.48
75891;BME280;64571;47.512;19.054;2023-03-03T22:08:59;100504.53;;;6.64;56.12
75891;BME280;64571;47.512;19.054;2023-03-03T22:12:03;100531.91;;;6.75;55.68
75891;BME280;64571;47.512;19.054;2023-03-03T22:15:06;100537.72;;;6.74;55.91
75891;BME280;64571;47.512;19.054;2023-03-03T22:18:09;100525.56;;;6.75;55.92
75891;BME280;64571;47.512;19.054;2023-03-03T22:21:11;100530.56;;;6.78;56.12
75891;BME280;64571;47.512;19.054;2023-03-03T22:24:14;100537.72;;;6.79;56.86
75891;BME280;64571;47.512;19.054;2023-03-03T22:27:16;100533.56;;;6.71;56.76